KBBB/BBB METAR and TAF weather

Enter ICAO airport designator
Station Type Date Time Source
KBBB METAR 2018/07/21 12:56 UTC NOAA

KBBB 211256Z AUTO 00000KT 7SM OVC007 19/17 A3009 RMK AO2


Station Type Date Time Source
KBBB Decoded METAR 2018/07/21 12:56 UTC NOAA

Benson Municipal, MN, United States (KBBB) 45-19N 095-39W
Jul 21, 2018 - 08:56 AM EDT / 2018.07.21 1256 UTC
Wind: Calm:0
Visibility: 7 mile(s):0
Sky conditions: overcast
Temperature: 66 F (19 C)
Dew Point: 62 F (17 C)
Relative Humidity: 88%
Pressure (altimeter): 30.09 in. Hg (1018 hPa)
ob: KBBB 211256Z AUTO 00000KT 7SM OVC007 19/17 A3009 RMK AO2
cycle: 13

Station Type Date Time Source
KBBB TAF UTC NOAA

Error!


Example: see airport list